createdAt,value
2023-01-19T00:01:44.805Z,1.75
2023-01-19T00:04:13.394Z,2.03
2023-01-19T00:06:41.468Z,1.64
2023-01-19T00:09:10.138Z,1.94
2023-01-19T00:11:38.531Z,1.75
2023-01-19T00:14:06.618Z,1.83
2023-01-19T00:16:34.802Z,2.02
2023-01-19T00:19:02.909Z,1.80
2023-01-19T00:21:31.234Z,1.99
2023-01-19T00:23:59.628Z,1.93
2023-01-19T00:26:27.822Z,1.54
2023-01-19T00:28:56.598Z,1.80
2023-01-19T00:31:24.920Z,1.75
2023-01-19T00:33:53.200Z,1.52
2023-01-19T00:36:21.326Z,1.36
2023-01-19T00:38:49.510Z,1.57
2023-01-19T00:41:17.886Z,1.50
2023-01-19T00:43:46.006Z,1.49
2023-01-19T00:46:14.170Z,1.11
2023-01-19T00:48:42.293Z,1.31
2023-01-19T00:51:10.652Z,1.42
2023-01-19T00:53:38.709Z,1.29
2023-01-19T00:56:07.415Z,1.26
2023-01-19T00:58:35.427Z,1.27
2023-01-19T01:01:05.030Z,1.13
2023-01-19T01:03:33.614Z,1.14
2023-01-19T01:06:08.463Z,0.99
2023-01-19T01:08:36.795Z,0.93
2023-01-19T01:11:05.087Z,1.08
2023-01-19T01:13:33.548Z,1.22
2023-01-19T01:16:01.920Z,1.17
2023-01-19T01:18:29.899Z,0.96
2023-01-19T01:21:06.641Z,1.08
2023-01-19T01:23:36.097Z,1.55
2023-01-19T01:26:04.221Z,1.25
2023-01-19T01:28:32.583Z,1.42
2023-01-19T01:31:00.678Z,1.32
2023-01-19T01:33:41.256Z,1.33
2023-01-19T01:36:12.076Z,1.19
2023-01-19T01:38:41.664Z,1.03
2023-01-19T01:41:10.292Z,1.34
2023-01-19T01:43:55.186Z,1.46
2023-01-19T01:46:23.367Z,1.18
2023-01-19T01:49:10.818Z,1.35
2023-01-19T01:51:48.462Z,1.31
2023-01-19T01:54:30.805Z,1.17
2023-01-19T01:57:05.729Z,0.91
2023-01-19T01:59:40.534Z,1.06
2023-01-19T02:02:44.849Z,1.11
2023-01-19T02:05:38.325Z,0.99
2023-01-19T02:08:35.617Z,1.03
2023-01-19T02:11:23.696Z,0.96
2023-01-19T02:13:52.016Z,0.89
2023-01-19T02:16:20.199Z,1.10
2023-01-19T02:18:48.617Z,0.92
2023-01-19T02:21:56.702Z,1.13
2023-01-19T02:24:25.630Z,1.20
2023-01-19T02:26:54.007Z,0.93
2023-01-19T02:29:25.334Z,0.95
2023-01-19T02:31:54.747Z,1.01
2023-01-19T02:34:23.316Z,1.05
2023-01-19T02:37:00.372Z,0.63
2023-01-19T02:39:50.829Z,1.00
2023-01-19T02:42:30.496Z,1.02
2023-01-19T02:44:58.933Z,1.04
2023-01-19T02:47:27.076Z,1.11
2023-01-19T02:49:59.996Z,0.87
2023-01-19T02:52:28.564Z,0.87
2023-01-19T02:55:19.859Z,1.16
2023-01-19T02:58:15.703Z,1.19
2023-01-19T03:01:32.847Z,1.21
2023-01-19T03:04:13.927Z,1.02
2023-01-19T03:07:08.783Z,1.17
2023-01-19T03:10:22.711Z,0.99
2023-01-19T03:12:59.831Z,1.15
2023-01-19T03:15:45.441Z,1.14
2023-01-19T03:18:18.636Z,0.53
2023-01-19T03:20:49.885Z,1.17
2023-01-19T03:23:19.856Z,1.18
2023-01-19T03:25:50.908Z,0.95
2023-01-19T03:28:21.715Z,1.22
2023-01-19T03:30:59.760Z,1.02
2023-01-19T03:33:37.879Z,0.67
2023-01-19T03:36:31.391Z,0.84
2023-01-19T03:39:02.626Z,1.15
2023-01-19T03:41:34.618Z,0.95
2023-01-19T03:44:05.784Z,1.16
2023-01-19T03:46:34.792Z,0.98
2023-01-19T03:49:03.452Z,1.24
2023-01-19T03:51:35.392Z,1.04
2023-01-19T03:54:05.761Z,1.27
2023-01-19T03:56:34.103Z,1.29
2023-01-19T03:59:02.505Z,1.23
2023-01-19T04:01:30.897Z,1.28
2023-01-19T04:03:59.115Z,1.22
2023-01-19T04:06:28.102Z,1.03
2023-01-19T04:08:56.960Z,1.32
2023-01-19T04:11:25.774Z,1.22
2023-01-19T04:13:54.207Z,1.34
2023-01-19T04:16:23.831Z,0.88
2023-01-19T04:18:52.824Z,1.25
2023-01-19T04:21:20.864Z,1.42
2023-01-19T04:23:50.266Z,1.13
2023-01-19T04:26:19.082Z,1.44
2023-01-19T04:28:47.807Z,1.18
2023-01-19T04:31:16.070Z,1.15
2023-01-19T04:33:44.075Z,1.32
2023-01-19T04:36:11.955Z,1.39
2023-01-19T04:38:40.067Z,1.38
2023-01-19T04:41:07.955Z,1.54
2023-01-19T04:43:35.926Z,1.58
2023-01-19T04:46:04.315Z,1.32
2023-01-19T04:48:32.700Z,1.33
2023-01-19T04:51:00.730Z,1.53
2023-01-19T04:53:28.738Z,1.18
2023-01-19T04:55:57.305Z,1.37
2023-01-19T04:58:25.793Z,1.18
2023-01-19T05:00:53.818Z,1.52
2023-01-19T05:03:23.599Z,1.66
2023-01-19T05:05:53.406Z,1.68
2023-01-19T05:08:21.600Z,1.41
2023-01-19T05:10:50.766Z,1.40
2023-01-19T05:13:18.640Z,1.71
2023-01-19T05:15:46.821Z,1.73
2023-01-19T05:18:14.888Z,1.75
2023-01-19T05:20:43.103Z,1.76
2023-01-19T05:23:11.428Z,1.48
2023-01-19T05:25:39.481Z,1.77
2023-01-19T05:28:07.820Z,1.57
2023-01-19T05:30:36.339Z,1.31
2023-01-19T05:33:04.375Z,1.86
2023-01-19T05:35:36.161Z,1.84
2023-01-19T05:38:05.309Z,1.59
2023-01-19T05:40:33.533Z,1.87
2023-01-19T05:43:05.289Z,1.90
2023-01-19T05:45:35.156Z,1.88
2023-01-19T05:48:03.449Z,1.89
2023-01-19T05:50:32.365Z,1.84
2023-01-19T05:53:02.479Z,1.66
2023-01-19T05:55:30.853Z,1.76
2023-01-19T05:57:59.372Z,1.90
2023-01-19T06:00:28.045Z,1.88
2023-01-19T06:02:56.767Z,1.67
2023-01-19T06:05:24.631Z,1.49
2023-01-19T06:07:53.069Z,1.88
2023-01-19T06:10:21.314Z,1.87
2023-01-19T06:12:49.719Z,1.91
2023-01-19T06:15:18.265Z,1.87
2023-01-19T06:17:46.610Z,1.45
2023-01-19T06:20:15.600Z,1.80
2023-01-19T06:22:44.433Z,1.87
2023-01-19T06:25:13.164Z,1.87
2023-01-19T06:27:45.521Z,1.77
2023-01-19T06:30:14.434Z,1.82
2023-01-19T06:32:42.547Z,1.91
2023-01-19T06:35:12.361Z,1.89
2023-01-19T06:37:41.172Z,1.96
2023-01-19T06:40:10.387Z,1.48
2023-01-19T06:42:39.632Z,1.86
2023-01-19T06:45:10.249Z,1.90
2023-01-19T06:47:38.173Z,1.85
2023-01-19T06:50:07.523Z,1.93
2023-01-19T06:52:42.377Z,1.85
2023-01-19T06:55:12.312Z,1.79
2023-01-19T06:57:40.406Z,2.11
2023-01-19T07:00:09.389Z,1.90
2023-01-19T07:02:41.091Z,2.05
2023-01-19T07:05:10.431Z,2.12
2023-01-19T07:07:42.141Z,1.82
2023-01-19T07:10:12.224Z,2.15
2023-01-19T07:12:40.165Z,1.83
2023-01-19T07:15:09.522Z,2.03
2023-01-19T07:17:37.635Z,2.11
2023-01-19T07:20:06.835Z,1.98
2023-01-19T07:22:35.005Z,1.80
2023-01-19T07:25:03.775Z,1.86
2023-01-19T07:27:31.918Z,1.93
2023-01-19T07:30:01.227Z,2.20
2023-01-19T07:32:30.049Z,2.19
2023-01-19T07:34:57.979Z,2.08
2023-01-19T07:37:26.012Z,1.93
2023-01-19T07:39:53.956Z,2.16
2023-01-19T07:42:22.175Z,2.20
2023-01-19T07:44:50.137Z,2.10
2023-01-19T07:47:18.614Z,2.03
2023-01-19T07:49:47.097Z,1.95
2023-01-19T07:52:15.688Z,1.97
2023-01-19T07:54:43.864Z,1.74
2023-01-19T07:57:12.027Z,2.00
2023-01-19T07:59:40.025Z,1.61
2023-01-19T08:02:11.355Z,1.92
2023-01-19T08:04:40.460Z,1.90
2023-01-19T08:07:09.810Z,1.86
2023-01-19T08:09:38.409Z,1.86
2023-01-19T08:12:07.086Z,1.87
2023-01-19T08:14:35.223Z,1.85
2023-01-19T08:17:04.237Z,1.71
2023-01-19T08:19:32.539Z,1.56
2023-01-19T08:22:01.738Z,1.66
2023-01-19T08:24:31.712Z,1.63
2023-01-19T08:27:02.619Z,1.33
2023-01-19T08:29:32.345Z,1.59
2023-01-19T08:32:03.231Z,1.58
2023-01-19T08:34:33.840Z,1.43
2023-01-19T08:46:17.635Z,1.50
2023-01-19T08:48:48.270Z,1.23
2023-01-19T08:51:20.322Z,1.62
2023-01-19T08:53:48.643Z,1.42
2023-01-19T08:56:18.538Z,1.72
2023-01-19T08:58:59.435Z,1.58
2023-01-19T09:01:37.637Z,1.65
2023-01-19T09:04:06.800Z,1.06
2023-01-19T09:06:35.083Z,1.67
2023-01-19T09:09:04.058Z,1.70
2023-01-19T09:11:33.801Z,1.79
2023-01-19T09:14:02.439Z,1.55
2023-01-19T09:16:31.175Z,1.77
2023-01-19T09:19:00.271Z,0.95
2023-01-19T09:21:29.067Z,1.62
2023-01-19T09:23:58.023Z,1.61
2023-01-19T09:26:27.083Z,1.55
2023-01-19T09:28:55.394Z,1.48
2023-01-19T09:31:24.345Z,1.53
2023-01-19T09:33:54.643Z,1.33
2023-01-19T09:36:24.401Z,1.35
2023-01-19T09:38:53.022Z,1.29
2023-01-19T09:41:22.941Z,1.28
2023-01-19T09:44:00.671Z,1.26
2023-01-19T09:46:43.624Z,1.29
2023-01-19T09:49:27.008Z,1.40
2023-01-19T09:51:55.465Z,1.37
2023-01-19T09:54:58.766Z,1.44
2023-01-19T09:57:28.008Z,1.31
2023-01-19T09:59:59.995Z,1.52
2023-01-19T10:02:57.326Z,1.43
2023-01-19T10:05:45.801Z,1.61
2023-01-19T10:08:28.896Z,1.61
2023-01-19T10:10:59.501Z,1.46
2023-01-19T10:13:50.168Z,1.56
2023-01-19T10:16:59.460Z,1.67
2023-01-19T10:19:41.219Z,1.47
2023-01-19T10:22:25.902Z,1.54
2023-01-19T10:25:08.816Z,1.48
2023-01-19T10:27:39.698Z,1.75
2023-01-19T10:30:16.761Z,1.65
2023-01-19T10:32:45.754Z,1.59
2023-01-19T10:35:23.982Z,2.00
2023-01-19T10:38:01.698Z,1.52
2023-01-19T10:41:05.443Z,1.81
2023-01-19T10:43:41.711Z,1.97
2023-01-19T10:46:44.120Z,1.88
2023-01-19T10:49:31.631Z,2.02
2023-01-19T10:52:01.136Z,1.77
2023-01-19T10:54:32.821Z,1.69
2023-01-19T10:57:08.164Z,1.82
2023-01-19T10:59:51.276Z,2.02
2023-01-19T11:02:28.147Z,2.13
2023-01-19T11:05:23.096Z,1.83
2023-01-19T11:07:52.324Z,2.13
2023-01-19T11:10:29.915Z,2.14
2023-01-19T11:13:14.419Z,2.25
2023-01-19T11:16:09.973Z,1.78
2023-01-19T11:18:41.861Z,2.09
2023-01-19T11:21:19.843Z,1.97
2023-01-19T11:23:52.537Z,2.03
2023-01-19T11:26:48.993Z,2.23
2023-01-19T11:29:27.870Z,2.23
2023-01-19T11:32:10.795Z,2.18
2023-01-19T11:34:39.918Z,2.17
2023-01-19T11:37:20.317Z,1.93
2023-01-19T11:39:59.005Z,2.13
2023-01-19T11:42:33.547Z,2.12
2023-01-19T11:45:17.912Z,2.17
2023-01-19T11:47:57.060Z,2.25
2023-01-19T11:50:44.270Z,2.25
2023-01-19T11:53:25.959Z,2.27
2023-01-19T11:56:14.002Z,2.37
2023-01-19T11:58:48.561Z,2.07
2023-01-19T12:01:26.389Z,2.24
2023-01-19T12:04:14.427Z,2.08
2023-01-19T12:06:53.657Z,2.27
2023-01-19T12:09:39.711Z,2.32
2023-01-19T12:12:31.422Z,2.03
2023-01-19T12:15:36.075Z,2.37
2023-01-19T12:18:08.287Z,2.27
2023-01-19T12:20:41.074Z,2.15
2023-01-19T12:23:18.922Z,2.16
2023-01-19T12:26:24.622Z,2.15
2023-01-19T12:28:59.268Z,1.94
2023-01-19T12:31:28.619Z,2.23
2023-01-19T12:34:20.124Z,2.27
2023-01-19T12:36:49.820Z,2.38
2023-01-19T12:39:22.147Z,2.34
2023-01-19T12:42:21.275Z,2.13
2023-01-19T12:44:52.532Z,2.39
2023-01-19T12:47:24.642Z,2.22
2023-01-19T12:50:06.769Z,2.21
2023-01-19T12:52:41.806Z,1.82
2023-01-19T12:55:16.989Z,2.20
2023-01-19T12:57:56.655Z,1.97
2023-01-19T13:00:24.731Z,2.15
2023-01-19T13:03:20.139Z,2.07
2023-01-19T13:05:55.935Z,2.04
2023-01-19T13:08:49.554Z,2.02
2023-01-19T13:11:20.329Z,1.98
2023-01-19T13:14:00.223Z,1.97
2023-01-19T13:16:28.837Z,1.56
2023-01-19T13:19:05.519Z,1.55
2023-01-19T13:21:44.765Z,1.42
2023-01-19T13:24:15.917Z,1.55
2023-01-19T13:27:00.337Z,1.28
2023-01-19T13:29:31.811Z,1.53
2023-01-19T13:32:05.368Z,1.59
2023-01-19T13:35:07.171Z,1.53
2023-01-19T13:37:42.498Z,1.46
2023-01-19T13:40:30.553Z,1.22
2023-01-19T13:42:59.855Z,1.29
2023-01-19T13:45:38.170Z,1.31
2023-01-19T13:48:14.954Z,1.16
2023-01-19T13:50:56.381Z,1.09
2023-01-19T13:53:25.223Z,0.97
2023-01-19T13:56:23.327Z,1.15
2023-01-19T13:59:10.327Z,1.18
2023-01-19T14:01:46.089Z,0.96
2023-01-19T14:04:33.939Z,1.26
2023-01-19T14:07:06.280Z,1.22
2023-01-19T14:09:34.844Z,1.10
2023-01-19T14:12:17.584Z,0.78
2023-01-19T14:14:50.113Z,1.12
2023-01-19T14:17:28.418Z,0.90
2023-01-19T14:20:01.465Z,0.88
2023-01-19T14:22:44.110Z,0.87
2023-01-19T14:25:36.753Z,1.08
2023-01-19T14:28:40.730Z,1.03
2023-01-19T14:31:28.434Z,1.09
2023-01-19T14:33:59.037Z,0.73
2023-01-19T14:36:40.062Z,0.98
2023-01-19T14:39:22.420Z,0.72
2023-01-19T14:41:53.231Z,1.02
2023-01-19T14:44:40.218Z,0.95
2023-01-19T14:47:27.963Z,1.04
2023-01-19T14:50:02.913Z,0.64
2023-01-19T14:52:42.758Z,0.70
2023-01-19T14:55:49.589Z,0.73
2023-01-19T14:58:21.551Z,0.92
2023-01-19T15:00:50.335Z,0.47
2023-01-19T15:03:19.811Z,0.43
2023-01-19T15:05:50.176Z,0.54
2023-01-19T15:08:33.817Z,0.74
2023-01-19T15:11:22.323Z,0.97
2023-01-19T15:13:50.984Z,0.70
2023-01-19T15:16:20.366Z,0.83
2023-01-19T15:18:49.168Z,0.94
2023-01-19T15:21:23.886Z,0.84
2023-01-19T15:23:52.434Z,0.91
2023-01-19T15:26:25.711Z,0.94
2023-01-19T15:28:56.695Z,0.92
2023-01-19T15:31:26.808Z,0.76
2023-01-19T15:33:55.198Z,0.75
2023-01-19T15:36:25.785Z,0.95
2023-01-19T15:38:53.770Z,1.02
2023-01-19T15:41:30.274Z,0.96
2023-01-19T15:43:59.187Z,0.93
2023-01-19T15:46:28.521Z,0.92
2023-01-19T15:48:57.325Z,0.96
2023-01-19T15:51:27.355Z,0.78
2023-01-19T15:53:56.130Z,0.92
2023-01-19T15:56:30.442Z,0.89
2023-01-19T15:58:59.985Z,0.86
2023-01-19T16:01:34.365Z,0.85
2023-01-19T16:04:08.145Z,0.83
2023-01-19T16:06:36.434Z,0.83
2023-01-19T16:09:04.550Z,0.75
2023-01-19T16:11:35.381Z,0.37
2023-01-19T16:14:03.650Z,0.89
2023-01-19T16:16:31.977Z,0.83
2023-01-19T16:19:00.398Z,0.83
2023-01-19T16:21:29.213Z,0.74
2023-01-19T16:23:57.513Z,0.91
2023-01-19T16:26:35.624Z,0.97
2023-01-19T16:29:10.114Z,0.85
2023-01-19T16:31:41.469Z,1.00
2023-01-19T16:34:11.124Z,0.95
2023-01-19T16:36:42.336Z,0.91
2023-01-19T16:39:18.474Z,0.94
2023-01-19T16:41:46.877Z,0.63
2023-01-19T16:44:17.128Z,0.75
2023-01-19T16:46:46.931Z,0.81
2023-01-19T16:49:24.311Z,0.81
2023-01-19T16:51:54.958Z,0.97
2023-01-19T16:54:27.993Z,0.79
2023-01-19T16:56:57.786Z,0.88
2023-01-19T16:59:27.308Z,0.69
2023-01-19T17:01:57.414Z,0.61
2023-01-19T17:04:27.446Z,0.81
2023-01-19T17:06:56.250Z,0.82
2023-01-19T17:09:24.761Z,0.92
2023-01-19T17:11:52.840Z,0.97
2023-01-19T17:14:21.145Z,0.98
2023-01-19T17:16:50.223Z,0.98
2023-01-19T17:19:21.103Z,0.93
2023-01-19T17:21:49.985Z,0.78
2023-01-19T17:24:18.793Z,0.74
2023-01-19T17:26:49.046Z,0.92
2023-01-19T17:29:18.116Z,0.93
2023-01-19T17:31:47.158Z,0.95
2023-01-19T17:34:15.751Z,0.92
2023-01-19T17:36:44.073Z,0.91
2023-01-19T17:39:15.114Z,0.96
2023-01-19T17:41:43.740Z,0.88
2023-01-19T17:44:12.083Z,0.88
2023-01-19T17:46:40.461Z,0.93
2023-01-19T17:49:09.381Z,0.91
2023-01-19T17:51:37.965Z,1.00
2023-01-19T17:54:09.038Z,0.89
2023-01-19T17:56:38.902Z,0.94
2023-01-19T17:59:08.399Z,0.81
2023-01-19T18:01:40.984Z,0.81
2023-01-19T18:04:10.870Z,0.96
2023-01-19T18:06:40.626Z,0.93
2023-01-19T18:09:09.728Z,0.80
2023-01-19T18:11:38.784Z,0.88
2023-01-19T18:14:08.264Z,0.91
2023-01-19T18:16:37.452Z,0.73
2023-01-19T18:19:06.806Z,0.84
2023-01-19T18:21:35.749Z,0.73
2023-01-19T18:24:06.614Z,0.86
2023-01-19T18:26:36.587Z,0.80
2023-01-19T18:29:05.164Z,0.91
2023-01-19T18:31:33.724Z,0.72
2023-01-19T18:34:02.114Z,0.67
2023-01-19T18:36:34.435Z,0.77
2023-01-19T18:39:04.103Z,0.69
2023-01-19T18:41:34.597Z,0.84
2023-01-19T18:44:03.091Z,0.75
2023-01-19T18:46:33.303Z,0.96
2023-01-19T18:49:02.170Z,0.59
2023-01-19T18:51:31.048Z,0.91
2023-01-19T18:54:00.137Z,0.74
2023-01-19T18:56:29.003Z,0.76
2023-01-19T18:58:57.733Z,0.79
2023-01-19T19:01:32.828Z,0.87
2023-01-19T19:04:02.819Z,0.73
2023-01-19T19:06:31.855Z,0.73
2023-01-19T19:09:00.575Z,0.93
2023-01-19T19:11:29.106Z,0.81
2023-01-19T19:14:03.399Z,0.76
2023-01-19T19:16:35.178Z,0.70
2023-01-19T19:19:05.485Z,0.59
2023-01-19T19:21:33.988Z,0.78
2023-01-19T19:24:02.656Z,0.75
2023-01-19T19:26:31.626Z,0.78
2023-01-19T19:29:02.037Z,0.79
2023-01-19T19:31:31.129Z,0.67
2023-01-19T19:34:00.203Z,0.66
2023-01-19T19:36:30.077Z,0.66
2023-01-19T19:39:00.126Z,0.64
2023-01-19T19:41:29.851Z,0.85
2023-01-19T19:43:59.640Z,0.59
2023-01-19T19:46:29.716Z,0.64
2023-01-19T19:48:58.305Z,0.69
2023-01-19T19:51:28.716Z,0.81
2023-01-19T19:54:00.673Z,0.79
2023-01-19T19:56:31.941Z,0.82
2023-01-19T19:59:01.543Z,0.74
2023-01-19T20:01:33.710Z,0.72
2023-01-19T20:04:12.126Z,0.72
2023-01-19T20:06:45.033Z,0.76
2023-01-19T20:09:16.231Z,0.63
2023-01-19T20:11:46.939Z,0.78
2023-01-19T20:14:16.841Z,0.45
2023-01-19T20:16:45.335Z,0.77
2023-01-19T20:19:13.825Z,0.68
2023-01-19T20:21:44.052Z,0.73
2023-01-19T20:24:19.904Z,0.49
2023-01-19T20:26:52.806Z,0.58
2023-01-19T20:29:21.603Z,0.74
2023-01-19T20:31:55.640Z,0.74
2023-01-19T20:34:32.111Z,0.59
2023-01-19T20:37:03.006Z,0.74
2023-01-19T20:39:33.769Z,0.28
2023-01-19T20:42:02.545Z,0.65
2023-01-19T20:44:30.980Z,0.62
2023-01-19T20:46:59.468Z,0.80
2023-01-19T20:49:29.079Z,0.84
2023-01-19T20:51:58.429Z,0.84
2023-01-19T20:54:30.368Z,0.72
2023-01-19T20:57:00.539Z,0.67
2023-01-19T20:59:33.733Z,0.65
2023-01-19T21:02:02.317Z,0.76
2023-01-19T21:04:30.723Z,0.68
2023-01-19T21:06:59.602Z,0.62
2023-01-19T21:09:29.737Z,0.61
2023-01-19T21:11:58.576Z,0.62
2023-01-19T21:14:30.221Z,0.63
2023-01-19T21:16:58.838Z,0.60
2023-01-19T21:19:27.464Z,0.62
2023-01-19T21:21:55.927Z,0.46
2023-01-19T21:24:24.828Z,0.64
2023-01-19T21:26:53.137Z,0.42
2023-01-19T21:29:21.965Z,0.60
2023-01-19T21:31:50.774Z,0.53
2023-01-19T21:34:21.028Z,0.55
2023-01-19T21:36:49.725Z,0.35
2023-01-19T21:39:18.495Z,0.56
2023-01-19T21:41:47.342Z,0.55
2023-01-19T21:44:16.108Z,0.59
2023-01-19T21:46:45.453Z,0.54
2023-01-19T21:49:19.503Z,0.42
2023-01-19T21:51:53.323Z,0.66
2023-01-19T21:54:21.955Z,0.43
2023-01-19T21:56:50.641Z,0.41
2023-01-19T21:59:20.385Z,0.60
2023-01-19T22:01:49.414Z,0.30
2023-01-19T22:04:18.037Z,0.57
2023-01-19T22:06:47.524Z,0.37
2023-01-19T22:09:16.122Z,0.66
2023-01-19T22:11:45.216Z,0.59
2023-01-19T22:14:19.272Z,0.53
2023-01-19T22:16:48.529Z,0.62
2023-01-19T22:19:23.400Z,0.61
2023-01-19T22:21:51.652Z,0.32
2023-01-19T22:24:20.370Z,0.40
2023-01-19T22:26:48.489Z,0.57
2023-01-19T22:29:20.178Z,0.27
2023-01-19T22:31:50.154Z,0.50
2023-01-19T22:34:20.387Z,0.28
2023-01-19T22:36:49.775Z,0.59
2023-01-19T22:39:18.164Z,0.56
2023-01-19T22:41:47.443Z,0.20
2023-01-19T22:44:23.441Z,0.30
2023-01-19T22:46:55.798Z,0.53
2023-01-19T22:49:24.345Z,0.64
2023-01-19T22:51:54.444Z,0.46
2023-01-19T22:54:23.521Z,0.62
2023-01-19T22:56:51.875Z,0.60
2023-01-19T22:59:21.116Z,0.30
2023-01-19T23:01:51.742Z,0.50
2023-01-19T23:04:20.683Z,0.48
2023-01-19T23:06:51.106Z,0.77
2023-01-19T23:09:19.940Z,0.58
2023-01-19T23:11:50.879Z,0.74
2023-01-19T23:14:22.202Z,0.60
2023-01-19T23:16:50.812Z,0.75
2023-01-19T23:19:19.916Z,0.74
2023-01-19T23:21:52.825Z,0.76
2023-01-19T23:24:20.976Z,0.79
2023-01-19T23:26:52.310Z,0.78
2023-01-19T23:29:20.769Z,0.50
2023-01-19T23:31:50.238Z,0.73
2023-01-19T23:34:18.569Z,0.75
2023-01-19T23:36:48.720Z,0.42
2023-01-19T23:39:21.183Z,0.46
2023-01-19T23:41:49.984Z,0.57
2023-01-19T23:44:18.448Z,0.83
2023-01-19T23:46:46.639Z,0.58
2023-01-19T23:49:15.638Z,0.79
2023-01-19T23:51:43.873Z,0.69
2023-01-19T23:54:12.420Z,0.89
2023-01-19T23:56:42.756Z,0.99
2023-01-19T23:59:14.263Z,1.05
